createdAt,value
2023-01-22T00:00:13.322Z,102691.97
2023-01-22T00:02:40.710Z,102675.59
2023-01-22T00:05:08.470Z,102675.53
2023-01-22T00:07:35.768Z,102679.09
2023-01-22T00:10:03.115Z,102674.84
2023-01-22T00:12:30.566Z,102671.72
2023-01-22T00:14:57.775Z,102665.38
2023-01-22T00:17:25.005Z,102658.50
2023-01-22T00:19:52.391Z,102666.72
2023-01-22T00:22:19.598Z,102673.75
2023-01-22T00:24:46.865Z,102665.16
2023-01-22T00:27:14.299Z,102664.84
2023-01-22T00:29:41.650Z,102665.72
2023-01-22T00:32:09.047Z,102657.19
2023-01-22T00:34:36.391Z,102662.69
2023-01-22T00:37:03.865Z,102655.38
2023-01-22T00:39:31.135Z,102663.28
2023-01-22T00:41:59.759Z,102670.00
2023-01-22T00:44:27.121Z,102659.28
2023-01-22T00:46:54.795Z,102667.41
2023-01-22T00:49:22.081Z,102662.53
2023-01-22T00:51:49.454Z,102663.09
2023-01-22T00:54:16.761Z,102664.72
2023-01-22T00:56:44.102Z,102668.22
2023-01-22T00:59:11.646Z,102667.00
2023-01-22T01:01:39.410Z,102653.22
2023-01-22T01:04:07.025Z,102652.91
2023-01-22T01:06:34.474Z,102657.03
2023-01-22T01:09:02.015Z,102659.22
2023-01-22T01:11:30.201Z,102651.06
2023-01-22T01:13:57.550Z,102645.19
2023-01-22T01:16:27.973Z,102636.97
2023-01-22T01:19:05.511Z,102638.03
2023-01-22T01:21:33.193Z,102636.88
2023-01-22T01:24:00.732Z,102642.63
2023-01-22T01:26:28.503Z,102651.63
2023-01-22T01:28:56.308Z,102653.69
2023-01-22T01:31:26.169Z,102649.50
2023-01-22T01:33:53.648Z,102645.53
2023-01-22T01:36:46.234Z,102662.19
2023-01-22T01:39:11.522Z,102671.69
2023-01-22T01:41:38.807Z,102672.41
2023-01-22T01:44:14.506Z,102678.50
2023-01-22T01:46:48.759Z,102662.66
2023-01-22T01:49:23.405Z,102665.94
2023-01-22T01:51:52.937Z,102662.53
2023-01-22T01:54:20.518Z,102659.84
2023-01-22T01:56:51.972Z,102662.91
2023-01-22T01:59:21.405Z,102667.38
2023-01-22T02:01:53.777Z,102655.63
2023-01-22T02:04:22.243Z,102647.19
2023-01-22T02:06:49.432Z,102651.50
2023-01-22T02:09:16.786Z,102650.28
2023-01-22T02:11:44.288Z,102653.00
2023-01-22T02:14:18.195Z,102642.94
2023-01-22T02:16:45.950Z,102641.53
2023-01-22T02:19:13.161Z,102649.88
2023-01-22T02:21:42.317Z,102649.56
2023-01-22T02:24:12.332Z,102647.84
2023-01-22T02:26:42.055Z,102660.41
2023-01-22T02:29:11.545Z,102659.63
2023-01-22T02:31:40.701Z,102653.78
2023-01-22T02:34:08.994Z,102649.59
2023-01-22T02:36:37.550Z,102656.50
2023-01-22T02:39:05.566Z,102659.31
2023-01-22T02:41:33.429Z,102657.69
2023-01-22T02:44:01.031Z,102654.00
2023-01-22T02:46:30.967Z,102645.66
2023-01-22T02:48:58.248Z,102646.59
2023-01-22T02:51:26.655Z,102650.78
2023-01-22T02:53:54.520Z,102650.38
2023-01-22T02:56:22.380Z,102640.31
2023-01-22T02:58:50.262Z,102648.47
2023-01-22T03:01:22.882Z,102649.03
2023-01-22T03:03:53.435Z,102669.47
2023-01-22T03:06:23.290Z,102657.31
2023-01-22T03:08:55.025Z,102662.19
2023-01-22T03:11:22.866Z,102657.63
2023-01-22T03:14:08.856Z,102655.75
2023-01-22T03:16:54.769Z,102658.00
2023-01-22T03:19:42.070Z,102649.34
2023-01-22T03:22:15.715Z,102655.66
2023-01-22T03:24:43.871Z,102658.91
2023-01-22T03:27:11.240Z,102650.94
2023-01-22T03:29:38.685Z,102654.63
2023-01-22T03:32:07.825Z,102653.91
2023-01-22T03:34:37.246Z,102659.47
2023-01-22T03:37:07.549Z,102648.28
2023-01-22T03:39:36.265Z,102647.97
2023-01-22T03:42:04.825Z,102642.16
2023-01-22T03:44:32.351Z,102637.72
2023-01-22T03:46:59.801Z,102638.72
2023-01-22T03:49:28.121Z,102642.09
2023-01-22T03:51:56.107Z,102655.28
2023-01-22T03:54:25.401Z,102658.13
2023-01-22T03:56:55.453Z,102655.44
2023-01-22T03:59:32.172Z,102657.91
2023-01-22T04:01:59.573Z,102660.84
2023-01-22T04:04:26.914Z,102655.19
2023-01-22T04:06:54.485Z,102654.19
2023-01-22T04:09:21.801Z,102649.00
2023-01-22T04:11:51.711Z,102649.91
2023-01-22T04:14:19.542Z,102647.59
2023-01-22T04:16:55.912Z,102647.94
2023-01-22T04:19:39.668Z,102640.81
2023-01-22T04:22:16.956Z,102632.28
2023-01-22T04:24:45.488Z,102641.00
2023-01-22T04:27:12.767Z,102645.00
2023-01-22T04:29:40.189Z,102639.59
2023-01-22T04:32:08.536Z,102628.06
2023-01-22T04:34:56.364Z,102641.56
2023-01-22T04:37:36.331Z,102640.50
2023-01-22T04:40:05.668Z,102638.84
2023-01-22T04:42:35.619Z,102634.25
2023-01-22T04:45:03.356Z,102632.78
2023-01-22T04:47:31.709Z,102618.47
2023-01-22T04:49:59.299Z,102626.88
2023-01-22T04:52:26.614Z,102628.34
2023-01-22T04:54:53.956Z,102618.00
2023-01-22T04:57:21.317Z,102616.50
2023-01-22T04:59:50.308Z,102617.22
2023-01-22T05:02:17.667Z,102614.19
2023-01-22T05:04:45.469Z,102607.88
2023-01-22T05:07:13.952Z,102607.59
2023-01-22T05:09:41.223Z,102602.34
2023-01-22T05:12:08.489Z,102608.16
2023-01-22T05:14:41.099Z,102612.59
2023-01-22T05:17:08.712Z,102617.44
2023-01-22T05:19:36.126Z,102618.00
2023-01-22T05:22:06.649Z,102614.44
2023-01-22T05:24:34.267Z,102599.44
2023-01-22T05:27:01.691Z,102598.44
2023-01-22T05:29:35.121Z,102591.97
2023-01-22T05:32:15.752Z,102594.91
2023-01-22T05:34:48.338Z,102602.25
2023-01-22T05:37:15.793Z,102606.84
2023-01-22T05:39:43.168Z,102603.75
2023-01-22T05:42:15.965Z,102606.41
2023-01-22T05:44:45.472Z,102610.53
2023-01-22T05:47:14.264Z,102611.50
2023-01-22T05:50:13.800Z,102604.00
2023-01-22T05:52:41.623Z,102599.16
2023-01-22T05:55:09.137Z,102598.03
2023-01-22T05:57:41.959Z,102595.13
2023-01-22T06:00:11.086Z,102599.44
2023-01-22T06:02:44.131Z,102583.53
2023-01-22T06:05:13.753Z,102594.03
2023-01-22T06:07:42.360Z,102592.00
2023-01-22T06:10:10.306Z,102595.19
2023-01-22T06:12:44.010Z,102602.25
2023-01-22T06:15:11.788Z,102605.59
2023-01-22T06:17:43.113Z,102613.75
2023-01-22T06:20:11.054Z,102611.50
2023-01-22T06:22:38.376Z,102622.25
2023-01-22T06:25:06.124Z,102609.16
2023-01-22T06:27:53.413Z,102606.69
2023-01-22T06:30:20.863Z,102602.47
2023-01-22T06:32:52.670Z,102598.53
2023-01-22T06:35:20.868Z,102602.47
2023-01-22T06:37:50.108Z,102597.72
2023-01-22T06:40:18.115Z,102597.34
2023-01-22T06:42:46.941Z,102593.56
2023-01-22T06:45:14.248Z,102603.53
2023-01-22T06:47:46.882Z,102612.75
2023-01-22T06:50:15.689Z,102611.47
2023-01-22T06:52:43.064Z,102614.28
2023-01-22T06:55:10.508Z,102609.88
2023-01-22T06:57:39.194Z,102616.63
2023-01-22T07:00:07.316Z,102623.72
2023-01-22T07:02:34.604Z,102626.44
2023-01-22T07:05:03.243Z,102631.22
2023-01-22T07:07:30.528Z,102624.44
2023-01-22T07:09:57.863Z,102621.88
2023-01-22T07:12:25.153Z,102624.59
2023-01-22T07:14:52.627Z,102637.94
2023-01-22T07:17:19.863Z,102622.44
2023-01-22T07:19:47.171Z,102637.13
2023-01-22T07:22:14.436Z,102648.28
2023-01-22T07:24:41.750Z,102649.91
2023-01-22T07:27:09.210Z,102644.06
2023-01-22T07:29:36.514Z,102647.84
2023-01-22T07:32:04.089Z,102654.09
2023-01-22T07:34:31.317Z,102660.53
2023-01-22T07:37:01.868Z,102663.13
2023-01-22T07:39:29.830Z,102658.03
2023-01-22T07:42:01.154Z,102670.28
2023-01-22T07:44:31.128Z,102657.59
2023-01-22T07:46:58.600Z,102665.84
2023-01-22T07:49:25.875Z,102663.16
2023-01-22T07:51:53.231Z,102664.75
2023-01-22T07:54:20.575Z,102666.06
2023-01-22T07:56:48.274Z,102661.63
2023-01-22T07:59:15.869Z,102654.84
2023-01-22T08:01:43.157Z,102668.75
2023-01-22T08:04:10.503Z,102653.81
2023-01-22T08:06:37.887Z,102663.69
2023-01-22T08:09:07.377Z,102669.72
2023-01-22T08:11:34.703Z,102672.69
2023-01-22T08:14:02.051Z,102673.59
2023-01-22T08:16:29.563Z,102684.03
2023-01-22T08:18:56.837Z,102664.59
2023-01-22T08:21:24.073Z,102682.41
2023-01-22T08:23:51.411Z,102684.16
2023-01-22T08:26:18.723Z,102688.53
2023-01-22T08:28:46.047Z,102685.19
2023-01-22T08:31:26.295Z,102692.84
2023-01-22T08:33:54.698Z,102686.59
2023-01-22T08:36:22.301Z,102695.22
2023-01-22T08:38:52.536Z,102706.84
2023-01-22T08:41:20.285Z,102693.31
2023-01-22T08:43:47.588Z,102694.75
2023-01-22T08:46:15.157Z,102703.06
2023-01-22T08:48:44.503Z,102707.06
2023-01-22T08:51:12.440Z,102703.03
2023-01-22T08:53:39.630Z,102715.22
2023-01-22T08:56:07.378Z,102722.94
2023-01-22T08:58:35.713Z,102710.44
2023-01-22T09:01:03.043Z,102700.59
2023-01-22T09:03:30.360Z,102716.03
2023-01-22T09:05:59.010Z,102709.34
2023-01-22T09:08:26.373Z,102707.75
2023-01-22T09:10:53.646Z,102718.13
2023-01-22T09:13:20.890Z,102707.28
2023-01-22T09:15:48.167Z,102717.38
2023-01-22T09:18:15.714Z,102704.84
2023-01-22T09:20:45.141Z,102703.88
2023-01-22T09:23:14.252Z,102704.59
2023-01-22T09:25:42.849Z,102689.66
2023-01-22T09:28:12.367Z,102701.75
2023-01-22T09:30:41.209Z,102699.88
2023-01-22T09:33:08.943Z,102698.03
2023-01-22T09:35:36.272Z,102708.72
2023-01-22T09:38:05.693Z,102727.94
2023-01-22T09:40:42.094Z,102710.78
2023-01-22T09:43:25.154Z,102717.25
2023-01-22T09:45:57.601Z,102717.25
2023-01-22T09:48:29.987Z,102723.91
2023-01-22T09:50:57.351Z,102718.66
2023-01-22T09:53:24.776Z,102726.63
2023-01-22T09:55:54.855Z,102725.81
2023-01-22T09:58:24.209Z,102726.66
2023-01-22T10:00:54.584Z,102727.25
2023-01-22T10:03:31.621Z,102737.75
2023-01-22T10:06:09.758Z,102736.09
2023-01-22T10:09:18.257Z,102737.94
2023-01-22T10:11:53.331Z,102723.69
2023-01-22T10:14:22.972Z,102729.59
2023-01-22T10:16:50.615Z,102726.47
2023-01-22T10:19:22.855Z,102733.97
2023-01-22T10:21:54.905Z,102732.31
2023-01-22T10:24:22.280Z,102722.66
2023-01-22T10:26:54.755Z,102727.47
2023-01-22T10:29:26.037Z,102718.53
2023-01-22T10:31:56.311Z,102715.84
2023-01-22T10:34:35.039Z,102722.72
2023-01-22T10:37:17.640Z,102720.00
2023-01-22T10:39:47.709Z,102711.19
2023-01-22T10:42:20.374Z,102727.31
2023-01-22T10:44:47.798Z,102716.88
2023-01-22T10:47:22.543Z,102720.00
2023-01-22T10:50:04.301Z,102712.06
2023-01-22T10:52:49.184Z,102710.72
2023-01-22T10:55:30.364Z,102711.59
2023-01-22T10:58:04.502Z,102704.47
2023-01-22T11:00:46.631Z,102715.16
2023-01-22T11:03:23.241Z,102714.88
2023-01-22T11:06:00.071Z,102714.31
2023-01-22T11:08:32.405Z,102707.25
2023-01-22T11:11:08.308Z,102701.00
2023-01-22T11:13:44.912Z,102699.31
2023-01-22T11:16:25.729Z,102704.75
2023-01-22T11:19:12.469Z,102695.34
2023-01-22T11:21:47.381Z,102706.22
2023-01-22T11:24:19.231Z,102691.16
2023-01-22T11:27:20.069Z,102687.38
2023-01-22T11:29:56.513Z,102692.63
2023-01-22T11:32:45.443Z,102687.59
2023-01-22T11:35:12.609Z,102691.16
2023-01-22T11:38:00.808Z,102696.78
2023-01-22T11:40:30.668Z,102689.25
2023-01-22T11:43:10.208Z,102692.41
2023-01-22T11:45:59.241Z,102689.28
2023-01-22T11:49:04.444Z,102686.59
2023-01-22T11:51:33.968Z,102678.22
2023-01-22T11:54:07.495Z,102667.78
2023-01-22T11:56:59.529Z,102664.00
2023-01-22T11:59:32.231Z,102662.97
2023-01-22T12:02:10.634Z,102662.94
2023-01-22T12:04:52.347Z,102655.00
2023-01-22T12:07:29.140Z,102644.16
2023-01-22T12:10:10.984Z,102645.63
2023-01-22T12:12:49.140Z,102636.00
2023-01-22T12:15:29.896Z,102630.97
2023-01-22T12:18:19.506Z,102642.47
2023-01-22T12:21:14.329Z,102634.94
2023-01-22T12:23:43.844Z,102635.13
2023-01-22T12:26:18.370Z,102630.13
2023-01-22T12:28:55.884Z,102635.97
2023-01-22T12:31:33.871Z,102623.66
2023-01-22T12:34:04.161Z,102639.56
2023-01-22T12:36:32.880Z,102629.50
2023-01-22T12:39:26.803Z,102632.22
2023-01-22T12:42:21.474Z,102619.03
2023-01-22T12:45:10.425Z,102616.72
2023-01-22T12:47:52.838Z,102626.34
2023-01-22T12:50:22.586Z,102610.47
2023-01-22T12:53:04.651Z,102617.97
2023-01-22T12:55:43.937Z,102603.13
2023-01-22T12:58:25.871Z,102599.09
2023-01-22T13:01:05.824Z,102600.16
2023-01-22T13:03:33.539Z,102606.06
2023-01-22T13:06:03.255Z,102601.81
2023-01-22T13:08:42.933Z,102602.41
2023-01-22T13:11:12.977Z,102594.94
2023-01-22T13:13:46.630Z,102584.44
2023-01-22T13:16:23.568Z,102593.22
2023-01-22T13:18:55.446Z,102584.44
2023-01-22T13:21:28.852Z,102583.19
2023-01-22T13:24:12.905Z,102599.13
2023-01-22T13:26:41.505Z,102578.75
2023-01-22T13:29:42.360Z,102583.97
2023-01-22T13:32:21.103Z,102592.13
2023-01-22T13:34:48.832Z,102586.47
2023-01-22T13:37:22.739Z,102577.00
2023-01-22T13:39:50.107Z,102577.19
2023-01-22T13:42:17.418Z,102581.84
2023-01-22T13:44:48.888Z,102584.81
2023-01-22T13:47:35.631Z,102590.81
2023-01-22T13:50:03.257Z,102593.25
2023-01-22T13:52:33.045Z,102594.28
2023-01-22T13:55:16.668Z,102596.16
2023-01-22T13:57:48.584Z,102594.91
2023-01-22T14:00:36.374Z,102599.41
2023-01-22T14:03:19.351Z,102585.97
2023-01-22T14:05:47.737Z,102603.66
2023-01-22T14:08:16.431Z,102599.44
2023-01-22T14:10:44.049Z,102603.41
2023-01-22T14:13:13.334Z,102617.00
2023-01-22T14:15:41.417Z,102606.38
2023-01-22T14:18:10.555Z,102605.13
2023-01-22T14:20:41.845Z,102612.41
2023-01-22T14:23:09.100Z,102609.88
2023-01-22T14:25:42.247Z,102608.78
2023-01-22T14:28:10.272Z,102595.63
2023-01-22T14:30:37.702Z,102606.81
2023-01-22T14:33:07.005Z,102626.06
2023-01-22T14:35:34.438Z,102664.16
2023-01-22T14:38:01.746Z,102640.53
2023-01-22T14:40:30.341Z,102643.88
2023-01-22T14:43:00.912Z,102627.28
2023-01-22T14:45:28.196Z,102632.91
2023-01-22T14:47:55.831Z,102631.63
2023-01-22T14:50:23.506Z,102624.75
2023-01-22T14:52:51.660Z,102639.66
2023-01-22T14:55:19.425Z,102634.19
2023-01-22T14:57:46.998Z,102634.94
2023-01-22T15:00:16.397Z,102634.53
2023-01-22T15:02:43.839Z,102641.06
2023-01-22T15:05:11.908Z,102632.91
2023-01-22T15:07:39.245Z,102641.13
2023-01-22T15:10:08.637Z,102634.69
2023-01-22T15:12:36.308Z,102637.59
2023-01-22T15:15:04.025Z,102626.88
2023-01-22T15:17:31.888Z,102632.13
2023-01-22T15:19:59.153Z,102634.75
2023-01-22T15:22:26.504Z,102631.06
2023-01-22T15:24:53.928Z,102641.25
2023-01-22T15:27:22.274Z,102631.59
2023-01-22T15:29:49.651Z,102639.38
2023-01-22T15:32:17.916Z,102632.59
2023-01-22T15:34:45.258Z,102632.22
2023-01-22T15:37:14.914Z,102632.13
2023-01-22T15:39:42.474Z,102639.56
2023-01-22T15:42:09.776Z,102629.09
2023-01-22T15:44:38.672Z,102631.59
2023-01-22T15:47:06.441Z,102652.19
2023-01-22T15:49:34.222Z,102650.53
2023-01-22T15:52:01.491Z,102648.59
2023-01-22T15:54:28.882Z,102651.19
2023-01-22T15:56:56.355Z,102649.72
2023-01-22T15:59:23.871Z,102642.56
2023-01-22T16:01:52.362Z,102666.44
2023-01-22T16:04:19.724Z,102657.50
2023-01-22T16:06:47.203Z,102648.28
2023-01-22T16:09:14.389Z,102656.44
2023-01-22T16:11:41.653Z,102645.09
2023-01-22T16:14:09.083Z,102670.44
2023-01-22T16:16:37.586Z,102660.41
2023-01-22T16:19:07.067Z,102652.25
2023-01-22T16:21:35.534Z,102656.84
2023-01-22T16:24:03.052Z,102671.28
2023-01-22T16:26:32.425Z,102654.75
2023-01-22T16:29:01.413Z,102661.22
2023-01-22T16:31:31.058Z,102660.59
2023-01-22T16:34:07.841Z,102652.03
2023-01-22T16:36:35.629Z,102657.06
2023-01-22T16:39:03.064Z,102652.44
2023-01-22T16:41:32.244Z,102640.09
2023-01-22T16:44:06.483Z,102646.63
2023-01-22T16:46:35.021Z,102657.09
2023-01-22T16:49:18.471Z,102647.63
2023-01-22T16:51:48.101Z,102654.53
2023-01-22T16:54:18.716Z,102660.00
2023-01-22T16:56:46.031Z,102660.63
2023-01-22T16:59:13.495Z,102663.97
2023-01-22T17:01:41.557Z,102663.31
2023-01-22T17:04:08.883Z,102655.63
2023-01-22T17:06:42.084Z,102658.97
2023-01-22T17:09:14.420Z,102666.88
2023-01-22T17:11:43.582Z,102652.25
2023-01-22T17:14:11.015Z,102657.31
2023-01-22T17:16:38.845Z,102658.34
2023-01-22T17:19:06.114Z,102663.75
2023-01-22T17:21:33.582Z,102658.66
2023-01-22T17:24:00.831Z,102652.41
2023-01-22T17:26:28.145Z,102654.44
2023-01-22T17:28:55.795Z,102651.31
2023-01-22T17:31:24.650Z,102655.16
2023-01-22T17:33:55.436Z,102665.56
2023-01-22T17:36:24.316Z,102656.56
2023-01-22T17:38:52.508Z,102661.34
2023-01-22T17:41:21.398Z,102673.56
2023-01-22T17:43:52.165Z,102672.56
2023-01-22T17:46:24.541Z,102690.56
2023-01-22T17:48:52.639Z,102674.63
2023-01-22T17:51:22.423Z,102676.50
2023-01-22T17:53:51.366Z,102674.63
2023-01-22T17:56:24.321Z,102676.91
2023-01-22T17:58:54.200Z,102673.69
2023-01-22T18:01:23.797Z,102678.28
2023-01-22T18:03:51.652Z,102680.03
2023-01-22T18:06:19.622Z,102692.38
2023-01-22T18:08:47.022Z,102686.84
2023-01-22T18:11:16.917Z,102697.16
2023-01-22T18:13:44.337Z,102690.00
2023-01-22T18:16:16.515Z,102714.13
2023-01-22T18:18:44.805Z,102716.06
2023-01-22T18:21:16.919Z,102713.13
2023-01-22T18:23:56.224Z,102702.66
2023-01-22T18:26:26.889Z,102703.09
2023-01-22T18:28:58.748Z,102697.88
2023-01-22T18:31:28.261Z,102701.19
2023-01-22T18:33:58.019Z,102707.69
2023-01-22T18:36:28.045Z,102710.19
2023-01-22T18:38:59.387Z,102697.19
2023-01-22T18:41:27.091Z,102702.84
2023-01-22T18:43:56.836Z,102699.97
2023-01-22T18:46:26.160Z,102702.84
2023-01-22T18:49:11.472Z,102703.53
2023-01-22T18:51:42.082Z,102700.16
2023-01-22T18:54:09.528Z,102700.38
2023-01-22T18:56:37.526Z,102706.22
2023-01-22T18:59:05.769Z,102703.50
2023-01-22T19:01:35.358Z,102716.47
2023-01-22T19:04:05.115Z,102709.16
2023-01-22T19:06:37.103Z,102716.06
2023-01-22T19:09:12.274Z,102717.50
2023-01-22T19:11:41.334Z,102728.78
2023-01-22T19:14:10.735Z,102717.50
2023-01-22T19:16:38.861Z,102724.81
2023-01-22T19:19:11.327Z,102719.78
2023-01-22T19:21:40.524Z,102726.09
2023-01-22T19:24:08.860Z,102728.19
2023-01-22T19:26:37.833Z,102722.31
2023-01-22T19:29:10.728Z,102730.91
2023-01-22T19:31:40.756Z,102721.47
2023-01-22T19:34:09.240Z,102729.63
2023-01-22T19:36:38.740Z,102727.16
2023-01-22T19:39:11.433Z,102722.09
2023-01-22T19:41:40.080Z,102727.50
2023-01-22T19:44:09.073Z,102717.50
2023-01-22T19:46:40.225Z,102726.31
2023-01-22T19:49:08.407Z,102723.34
2023-01-22T19:51:36.113Z,102729.66
2023-01-22T19:54:05.574Z,102725.88
2023-01-22T19:56:35.542Z,102729.44
2023-01-22T19:59:06.046Z,102737.38
2023-01-22T20:01:34.637Z,102729.88
2023-01-22T20:04:03.580Z,102730.91
2023-01-22T20:06:30.946Z,102732.38
2023-01-22T20:08:58.214Z,102730.06
2023-01-22T20:11:25.725Z,102741.78
2023-01-22T20:13:53.196Z,102747.00
2023-01-22T20:16:23.304Z,102752.22
2023-01-22T20:18:51.494Z,102754.53
2023-01-22T20:21:20.087Z,102753.03
2023-01-22T20:23:48.365Z,102760.16
2023-01-22T20:26:17.202Z,102748.22
2023-01-22T20:28:45.404Z,102748.88
2023-01-22T20:31:17.364Z,102740.50
2023-01-22T20:33:44.903Z,102738.63
2023-01-22T20:36:15.211Z,102735.09
2023-01-22T20:38:44.643Z,102737.78
2023-01-22T20:41:12.830Z,102749.28
2023-01-22T20:43:42.175Z,102754.31
2023-01-22T20:46:12.717Z,102754.31
2023-01-22T20:48:40.554Z,102750.72
2023-01-22T20:51:15.434Z,102764.78
2023-01-22T20:53:44.407Z,102750.56
2023-01-22T20:56:17.106Z,102752.66
2023-01-22T20:58:44.529Z,102756.81
2023-01-22T21:01:19.045Z,102761.41
2023-01-22T21:03:47.770Z,102766.34
2023-01-22T21:06:17.643Z,102773.06
2023-01-22T21:08:47.441Z,102773.53
2023-01-22T21:11:17.867Z,102789.63
2023-01-22T21:13:45.395Z,102753.50
2023-01-22T21:16:18.209Z,102764.34
2023-01-22T21:18:46.610Z,102764.78
2023-01-22T21:21:19.809Z,102749.09
2023-01-22T21:23:48.296Z,102752.66
2023-01-22T21:26:16.348Z,102760.38
2023-01-22T21:28:43.649Z,102760.38
2023-01-22T21:31:13.095Z,102768.31
2023-01-22T21:33:40.976Z,102761.41
2023-01-22T21:36:09.234Z,102766.84
2023-01-22T21:38:38.764Z,102768.94
2023-01-22T21:41:07.855Z,102768.69
2023-01-22T21:43:54.165Z,102765.81
2023-01-22T21:46:27.545Z,102763.09
2023-01-22T21:49:01.376Z,102771.47
2023-01-22T21:51:29.671Z,102783.19
2023-01-22T21:53:58.581Z,102779.41
2023-01-22T21:56:27.281Z,102788.19
2023-01-22T21:58:55.889Z,102794.25
2023-01-22T22:01:24.331Z,102801.56
2023-01-22T22:03:51.774Z,102797.56
2023-01-22T22:06:19.123Z,102797.38
2023-01-22T22:08:46.499Z,102794.03
2023-01-22T22:11:14.056Z,102794.03
2023-01-22T22:13:41.298Z,102796.75
2023-01-22T22:16:09.061Z,102806.78
2023-01-22T22:18:36.659Z,102806.16
2023-01-22T22:21:06.462Z,102803.84
2023-01-22T22:23:35.247Z,102794.84
2023-01-22T22:26:04.109Z,102809.53
2023-01-22T22:28:32.351Z,102809.72
2023-01-22T22:31:26.387Z,102815.09
2023-01-22T22:33:55.674Z,102807.16
2023-01-22T22:36:28.356Z,102805.72
2023-01-22T22:38:56.038Z,102806.16
2023-01-22T22:41:25.678Z,102803.63
2023-01-22T22:43:54.129Z,102810.31
2023-01-22T22:46:27.235Z,102805.50
2023-01-22T22:48:56.140Z,102800.94
2023-01-22T22:51:31.947Z,102801.16
2023-01-22T22:54:01.922Z,102807.44
2023-01-22T22:56:29.897Z,102803.38
2023-01-22T22:58:58.838Z,102799.22
2023-01-22T23:01:26.580Z,102799.69
2023-01-22T23:03:53.977Z,102806.19
2023-01-22T23:06:23.734Z,102797.41
2023-01-22T23:08:53.153Z,102802.84
2023-01-22T23:11:27.059Z,102797.16
2023-01-22T23:13:55.306Z,102791.91
2023-01-22T23:16:23.123Z,102802.34
2023-01-22T23:18:51.447Z,102798.16
2023-01-22T23:21:21.959Z,102788.78
2023-01-22T23:23:50.199Z,102786.06
2023-01-22T23:26:22.807Z,102784.41
2023-01-22T23:28:52.088Z,102783.56
2023-01-22T23:31:19.502Z,102786.09
2023-01-22T23:33:46.839Z,102775.66
2023-01-22T23:36:17.190Z,102781.41
2023-01-22T23:38:45.076Z,102766.84
2023-01-22T23:41:14.906Z,102763.91
2023-01-22T23:43:43.100Z,102767.72
2023-01-22T23:46:12.380Z,102766.03
2023-01-22T23:48:40.107Z,102764.78
2023-01-22T23:51:09.314Z,102778.78
2023-01-22T23:53:41.397Z,102771.47
2023-01-22T23:56:10.520Z,102774.78
2023-01-22T23:58:38.025Z,102761.22
